Burbank, Utah
Current Conditions -  °F | °C
As of 10:52 PM on Saturday 22 Nov 2014 (Local Time) from KMLF Reporting Station
Overcast Overcast  
Wind Chill: 30°   Ceiling: 7000
Heat Index: 36°   Visibility: 10mi
Dew Point: 33°   Wind: 7mph
Humidity: 89%   Direction: 320°NW
Pressure: 29.98"   Gusts: NA
Location:  38.3622°N, 113.404°W
Report Text: KMLF 230552Z AUTO 32006KT 10SM OVC070 02/01 A2998 RMK AO2 RAE22 SLP139 P0002 60006 T00220006 10094 20022 51033 TSNO
Loading
Personal Weather Stations






























Interactive Weather Map New forecast layout! Learn more

10-Day Weather Forecast

Advertisements
Track Severe Weather on mobile